sensor_id;sensor_type;location;lat;lon;timestamp;P1;durP1;ratioP1;P2;durP2;ratioP2
27408;SDS011;20413;50.782;7.152;2022-12-24T00:00:27;14.68;;;2.35;;
27408;SDS011;20413;50.782;7.152;2022-12-24T00:02:53;16.45;;;2.20;;
27408;SDS011;20413;50.782;7.152;2022-12-24T00:05:19;13.68;;;2.28;;
27408;SDS011;20413;50.782;7.152;2022-12-24T00:07:45;20.42;;;2.53;;
27408;SDS011;20413;50.782;7.152;2022-12-24T00:10:11;13.82;;;2.10;;
27408;SDS011;20413;50.782;7.152;2022-12-24T00:12:37;21.20;;;2.50;;
27408;SDS011;20413;50.782;7.152;2022-12-24T00:15:04;13.45;;;2.45;;
27408;SDS011;20413;50.782;7.152;2022-12-24T00:17:30;13.32;;;2.00;;
27408;SDS011;20413;50.782;7.152;2022-12-24T00:19:56;24.25;;;3.05;;
27408;SDS011;20413;50.782;7.152;2022-12-24T00:22:22;22.20;;;2.80;;
27408;SDS011;20413;50.782;7.152;2022-12-24T00:24:48;15.77;;;2.53;;
27408;SDS011;20413;50.782;7.152;2022-12-24T00:27:14;16.85;;;2.67;;
27408;SDS011;20413;50.782;7.152;2022-12-24T00:29:40;12.70;;;2.05;;
27408;SDS011;20413;50.782;7.152;2022-12-24T00:32:06;14.70;;;2.65;;
27408;SDS011;20413;50.782;7.152;2022-12-24T00:34:34;24.77;;;2.60;;
27408;SDS011;20413;50.782;7.152;2022-12-24T00:37:00;17.55;;;2.83;;
27408;SDS011;20413;50.782;7.152;2022-12-24T00:39:26;19.40;;;2.78;;
27408;SDS011;20413;50.782;7.152;2022-12-24T00:41:52;13.63;;;2.58;;
27408;SDS011;20413;50.782;7.152;2022-12-24T00:44:18;11.15;;;2.05;;
27408;SDS011;20413;50.782;7.152;2022-12-24T00:46:44;21.40;;;2.42;;
27408;SDS011;20413;50.782;7.152;2022-12-24T00:49:11;14.45;;;2.22;;
27408;SDS011;20413;50.782;7.152;2022-12-24T00:51:37;15.77;;;3.15;;
27408;SDS011;20413;50.782;7.152;2022-12-24T00:54:03;18.38;;;3.38;;
27408;SDS011;20413;50.782;7.152;2022-12-24T00:56:29;17.90;;;2.85;;
27408;SDS011;20413;50.782;7.152;2022-12-24T00:58:55;20.35;;;3.20;;
27408;SDS011;20413;50.782;7.152;2022-12-24T01:01:22;20.90;;;3.55;;
27408;SDS011;20413;50.782;7.152;2022-12-24T01:03:48;16.52;;;2.70;;
27408;SDS011;20413;50.782;7.152;2022-12-24T01:06:16;16.58;;;2.20;;
27408;SDS011;20413;50.782;7.152;2022-12-24T01:08:42;15.75;;;2.65;;
27408;SDS011;20413;50.782;7.152;2022-12-24T01:11:09;16.52;;;2.38;;
27408;SDS011;20413;50.782;7.152;2022-12-24T01:13:35;16.35;;;3.53;;
27408;SDS011;20413;50.782;7.152;2022-12-24T01:16:01;21.52;;;2.92;;
27408;SDS011;20413;50.782;7.152;2022-12-24T01:18:28;14.40;;;2.67;;
27408;SDS011;20413;50.782;7.152;2022-12-24T01:20:55;17.05;;;3.20;;
27408;SDS011;20413;50.782;7.152;2022-12-24T01:23:22;18.60;;;2.58;;
27408;SDS011;20413;50.782;7.152;2022-12-24T01:25:48;15.25;;;2.17;;
27408;SDS011;20413;50.782;7.152;2022-12-24T01:28:14;24.85;;;3.05;;
27408;SDS011;20413;50.782;7.152;2022-12-24T01:30:40;12.63;;;2.45;;
27408;SDS011;20413;50.782;7.152;2022-12-24T01:33:06;14.68;;;2.50;;
27408;SDS011;20413;50.782;7.152;2022-12-24T01:35:32;20.60;;;2.55;;
27408;SDS011;20413;50.782;7.152;2022-12-24T01:37:58;17.10;;;2.80;;
27408;SDS011;20413;50.782;7.152;2022-12-24T01:40:25;17.58;;;3.30;;
27408;SDS011;20413;50.782;7.152;2022-12-24T01:43:16;10.52;;;1.92;;
27408;SDS011;20413;50.782;7.152;2022-12-24T01:45:49;16.55;;;2.00;;
27408;SDS011;20413;50.782;7.152;2022-12-24T01:48:21;16.10;;;2.60;;
27408;SDS011;20413;50.782;7.152;2022-12-24T01:50:48;14.52;;;2.40;;
27408;SDS011;20413;50.782;7.152;2022-12-24T01:53:15;10.82;;;2.03;;
27408;SDS011;20413;50.782;7.152;2022-12-24T01:55:42;10.82;;;2.13;;
27408;SDS011;20413;50.782;7.152;2022-12-24T01:58:09;16.40;;;3.30;;
27408;SDS011;20413;50.782;7.152;2022-12-24T02:00:35;15.48;;;2.60;;
27408;SDS011;20413;50.782;7.152;2022-12-24T02:03:02;17.63;;;2.67;;
27408;SDS011;20413;50.782;7.152;2022-12-24T02:06:01;11.55;;;1.95;;
27408;SDS011;20413;50.782;7.152;2022-12-24T02:08:21;17.48;;;2.33;;
27408;SDS011;20413;50.782;7.152;2022-12-24T02:10:47;16.58;;;2.42;;
27408;SDS011;20413;50.782;7.152;2022-12-24T02:13:13;21.13;;;2.85;;
27408;SDS011;20413;50.782;7.152;2022-12-24T02:15:52;19.95;;;1.90;;
27408;SDS011;20413;50.782;7.152;2022-12-24T02:18:43;16.83;;;3.03;;
27408;SDS011;20413;50.782;7.152;2022-12-24T02:23:47;19.23;;;2.88;;
27408;SDS011;20413;50.782;7.152;2022-12-24T02:31:42;15.02;;;2.10;;
27408;SDS011;20413;50.782;7.152;2022-12-24T02:34:29;15.25;;;1.83;;
27408;SDS011;20413;50.782;7.152;2022-12-24T02:37:06;15.45;;;2.20;;
27408;SDS011;20413;50.782;7.152;2022-12-24T02:39:38;14.82;;;2.42;;
27408;SDS011;20413;50.782;7.152;2022-12-24T02:42:05;13.88;;;2.53;;
27408;SDS011;20413;50.782;7.152;2022-12-24T02:44:36;13.05;;;1.98;;
27408;SDS011;20413;50.782;7.152;2022-12-24T02:47:03;19.20;;;2.72;;
27408;SDS011;20413;50.782;7.152;2022-12-24T02:49:31;16.25;;;2.47;;
27408;SDS011;20413;50.782;7.152;2022-12-24T02:51:57;13.75;;;2.85;;
27408;SDS011;20413;50.782;7.152;2022-12-24T02:54:22;13.20;;;2.05;;
27408;SDS011;20413;50.782;7.152;2022-12-24T02:59:22;14.70;;;2.55;;
27408;SDS011;20413;50.782;7.152;2022-12-24T03:02:07;14.18;;;2.42;;
27408;SDS011;20413;50.782;7.152;2022-12-24T03:07:28;12.23;;;2.47;;
27408;SDS011;20413;50.782;7.152;2022-12-24T03:10:10;15.30;;;2.22;;
27408;SDS011;20413;50.782;7.152;2022-12-24T03:12:43;12.52;;;2.35;;
27408;SDS011;20413;50.782;7.152;2022-12-24T03:15:11;13.43;;;2.25;;
27408;SDS011;20413;50.782;7.152;2022-12-24T03:17:38;13.48;;;2.20;;
27408;SDS011;20413;50.782;7.152;2022-12-24T03:20:05;12.20;;;1.75;;
27408;SDS011;20413;50.782;7.152;2022-12-24T03:22:32;14.25;;;2.53;;
27408;SDS011;20413;50.782;7.152;2022-12-24T03:24:59;13.55;;;1.77;;
27408;SDS011;20413;50.782;7.152;2022-12-24T03:27:25;15.70;;;2.22;;
27408;SDS011;20413;50.782;7.152;2022-12-24T03:29:52;13.88;;;2.03;;
27408;SDS011;20413;50.782;7.152;2022-12-24T03:32:22;13.13;;;1.85;;
27408;SDS011;20413;50.782;7.152;2022-12-24T03:34:48;13.68;;;2.38;;
27408;SDS011;20413;50.782;7.152;2022-12-24T03:37:14;12.23;;;1.85;;
27408;SDS011;20413;50.782;7.152;2022-12-24T03:39:40;13.82;;;1.88;;
27408;SDS011;20413;50.782;7.152;2022-12-24T03:42:06;9.93;;;2.03;;
27408;SDS011;20413;50.782;7.152;2022-12-24T03:44:31;13.10;;;2.30;;
27408;SDS011;20413;50.782;7.152;2022-12-24T03:46:57;8.25;;;1.55;;
27408;SDS011;20413;50.782;7.152;2022-12-24T03:49:23;9.30;;;1.40;;
27408;SDS011;20413;50.782;7.152;2022-12-24T03:51:49;8.05;;;1.40;;
27408;SDS011;20413;50.782;7.152;2022-12-24T03:54:15;11.15;;;2.05;;
27408;SDS011;20413;50.782;7.152;2022-12-24T03:56:41;10.85;;;1.73;;
27408;SDS011;20413;50.782;7.152;2022-12-24T03:59:07;10.27;;;1.33;;
27408;SDS011;20413;50.782;7.152;2022-12-24T04:01:33;8.52;;;1.58;;
27408;SDS011;20413;50.782;7.152;2022-12-24T04:03:59;11.48;;;1.67;;
27408;SDS011;20413;50.782;7.152;2022-12-24T04:06:25;12.23;;;2.10;;
27408;SDS011;20413;50.782;7.152;2022-12-24T04:08:51;7.22;;;1.35;;
27408;SDS011;20413;50.782;7.152;2022-12-24T04:11:17;7.90;;;1.25;;
27408;SDS011;20413;50.782;7.152;2022-12-24T04:13:43;4.35;;;1.02;;
27408;SDS011;20413;50.782;7.152;2022-12-24T04:16:11;8.85;;;1.65;;
27408;SDS011;20413;50.782;7.152;2022-12-24T04:18:38;6.60;;;1.10;;
27408;SDS011;20413;50.782;7.152;2022-12-24T04:21:05;6.25;;;1.23;;
27408;SDS011;20413;50.782;7.152;2022-12-24T04:23:32;9.05;;;1.60;;
27408;SDS011;20413;50.782;7.152;2022-12-24T04:25:59;6.57;;;1.30;;
27408;SDS011;20413;50.782;7.152;2022-12-24T04:28:25;10.70;;;1.48;;
27408;SDS011;20413;50.782;7.152;2022-12-24T04:30:51;10.73;;;1.88;;
27408;SDS011;20413;50.782;7.152;2022-12-24T04:33:17;5.35;;;1.00;;
27408;SDS011;20413;50.782;7.152;2022-12-24T04:35:43;5.65;;;1.00;;
27408;SDS011;20413;50.782;7.152;2022-12-24T04:38:09;6.90;;;1.83;;
27408;SDS011;20413;50.782;7.152;2022-12-24T04:40:35;6.13;;;1.25;;
27408;SDS011;20413;50.782;7.152;2022-12-24T04:43:01;5.50;;;1.10;;
27408;SDS011;20413;50.782;7.152;2022-12-24T04:45:27;6.18;;;1.40;;
27408;SDS011;20413;50.782;7.152;2022-12-24T04:47:53;11.77;;;1.30;;
27408;SDS011;20413;50.782;7.152;2022-12-24T04:50:19;7.30;;;0.85;;
27408;SDS011;20413;50.782;7.152;2022-12-24T04:52:45;6.82;;;1.02;;
27408;SDS011;20413;50.782;7.152;2022-12-24T04:55:11;4.25;;;0.80;;
27408;SDS011;20413;50.782;7.152;2022-12-24T04:57:37;6.18;;;1.10;;
27408;SDS011;20413;50.782;7.152;2022-12-24T05:00:03;4.88;;;0.77;;
27408;SDS011;20413;50.782;7.152;2022-12-24T05:02:29;5.50;;;0.75;;
27408;SDS011;20413;50.782;7.152;2022-12-24T05:04:55;2.67;;;0.55;;
27408;SDS011;20413;50.782;7.152;2022-12-24T05:07:21;3.65;;;0.90;;
27408;SDS011;20413;50.782;7.152;2022-12-24T05:09:47;3.17;;;0.60;;
27408;SDS011;20413;50.782;7.152;2022-12-24T05:12:13;3.03;;;0.50;;
27408;SDS011;20413;50.782;7.152;2022-12-24T05:14:39;3.28;;;0.63;;
27408;SDS011;20413;50.782;7.152;2022-12-24T05:17:05;5.47;;;0.70;;
27408;SDS011;20413;50.782;7.152;2022-12-24T05:19:31;3.92;;;0.73;;
27408;SDS011;20413;50.782;7.152;2022-12-24T05:21:57;3.20;;;0.40;;
27408;SDS011;20413;50.782;7.152;2022-12-24T05:24:42;1.73;;;0.60;;
27408;SDS011;20413;50.782;7.152;2022-12-24T05:27:26;1.50;;;0.60;;
27408;SDS011;20413;50.782;7.152;2022-12-24T05:29:53;4.18;;;0.80;;
27408;SDS011;20413;50.782;7.152;2022-12-24T05:32:19;2.78;;;0.75;;
27408;SDS011;20413;50.782;7.152;2022-12-24T05:34:45;7.85;;;1.00;;
27408;SDS011;20413;50.782;7.152;2022-12-24T05:37:11;6.57;;;0.82;;
27408;SDS011;20413;50.782;7.152;2022-12-24T05:39:37;3.75;;;0.90;;
27408;SDS011;20413;50.782;7.152;2022-12-24T05:42:03;6.28;;;1.00;;
27408;SDS011;20413;50.782;7.152;2022-12-24T05:44:29;7.47;;;0.93;;
27408;SDS011;20413;50.782;7.152;2022-12-24T05:46:55;6.15;;;1.20;;
27408;SDS011;20413;50.782;7.152;2022-12-24T05:49:21;7.72;;;1.27;;
27408;SDS011;20413;50.782;7.152;2022-12-24T05:51:47;5.28;;;1.27;;
27408;SDS011;20413;50.782;7.152;2022-12-24T05:54:13;4.93;;;1.10;;
27408;SDS011;20413;50.782;7.152;2022-12-24T05:56:39;7.13;;;1.13;;
27408;SDS011;20413;50.782;7.152;2022-12-24T05:59:05;5.18;;;1.08;;
27408;SDS011;20413;50.782;7.152;2022-12-24T06:01:31;10.57;;;1.70;;
27408;SDS011;20413;50.782;7.152;2022-12-24T06:03:56;14.15;;;1.77;;
27408;SDS011;20413;50.782;7.152;2022-12-24T06:06:23;9.48;;;2.08;;
27408;SDS011;20413;50.782;7.152;2022-12-24T06:08:50;8.90;;;1.50;;
27408;SDS011;20413;50.782;7.152;2022-12-24T06:11:18;12.95;;;1.80;;
27408;SDS011;20413;50.782;7.152;2022-12-24T06:13:44;16.03;;;1.73;;
27408;SDS011;20413;50.782;7.152;2022-12-24T06:16:11;9.88;;;1.20;;
27408;SDS011;20413;50.782;7.152;2022-12-24T06:18:37;8.68;;;1.58;;
27408;SDS011;20413;50.782;7.152;2022-12-24T06:21:04;7.32;;;1.25;;
27408;SDS011;20413;50.782;7.152;2022-12-24T06:23:31;4.93;;;1.65;;
27408;SDS011;20413;50.782;7.152;2022-12-24T06:25:58;6.10;;;1.45;;
27408;SDS011;20413;50.782;7.152;2022-12-24T06:28:25;8.27;;;1.55;;
27408;SDS011;20413;50.782;7.152;2022-12-24T06:30:51;6.25;;;1.48;;
27408;SDS011;20413;50.782;7.152;2022-12-24T06:33:17;6.80;;;1.17;;
27408;SDS011;20413;50.782;7.152;2022-12-24T06:35:43;12.80;;;1.70;;
27408;SDS011;20413;50.782;7.152;2022-12-24T06:38:10;6.90;;;1.55;;
27408;SDS011;20413;50.782;7.152;2022-12-24T06:40:39;8.27;;;1.90;;
27408;SDS011;20413;50.782;7.152;2022-12-24T06:43:05;11.27;;;2.50;;
27408;SDS011;20413;50.782;7.152;2022-12-24T06:45:31;9.88;;;1.55;;
27408;SDS011;20413;50.782;7.152;2022-12-24T06:47:57;10.02;;;1.58;;
27408;SDS011;20413;50.782;7.152;2022-12-24T06:50:23;9.50;;;1.55;;
27408;SDS011;20413;50.782;7.152;2022-12-24T06:52:49;6.88;;;1.35;;
27408;SDS011;20413;50.782;7.152;2022-12-24T06:55:15;8.05;;;2.38;;
27408;SDS011;20413;50.782;7.152;2022-12-24T06:57:41;8.48;;;1.55;;
27408;SDS011;20413;50.782;7.152;2022-12-24T07:00:08;10.13;;;1.77;;
27408;SDS011;20413;50.782;7.152;2022-12-24T07:02:35;10.25;;;2.15;;
27408;SDS011;20413;50.782;7.152;2022-12-24T07:05:00;13.30;;;2.08;;
27408;SDS011;20413;50.782;7.152;2022-12-24T07:07:26;7.35;;;1.80;;
27408;SDS011;20413;50.782;7.152;2022-12-24T07:09:52;12.32;;;2.38;;
27408;SDS011;20413;50.782;7.152;2022-12-24T07:12:18;11.88;;;1.80;;
27408;SDS011;20413;50.782;7.152;2022-12-24T07:14:44;19.70;;;2.55;;
27408;SDS011;20413;50.782;7.152;2022-12-24T07:17:10;17.75;;;2.17;;
27408;SDS011;20413;50.782;7.152;2022-12-24T07:19:37;12.02;;;1.77;;
27408;SDS011;20413;50.782;7.152;2022-12-24T07:22:03;16.40;;;2.88;;
27408;SDS011;20413;50.782;7.152;2022-12-24T07:24:28;20.55;;;2.90;;
27408;SDS011;20413;50.782;7.152;2022-12-24T07:26:54;19.70;;;3.03;;
27408;SDS011;20413;50.782;7.152;2022-12-24T07:29:20;11.75;;;2.10;;
27408;SDS011;20413;50.782;7.152;2022-12-24T07:31:46;16.83;;;2.42;;
27408;SDS011;20413;50.782;7.152;2022-12-24T07:34:12;18.05;;;3.03;;
27408;SDS011;20413;50.782;7.152;2022-12-24T07:36:38;12.40;;;2.38;;
27408;SDS011;20413;50.782;7.152;2022-12-24T07:39:04;13.18;;;2.17;;
27408;SDS011;20413;50.782;7.152;2022-12-24T07:41:30;24.40;;;2.72;;
27408;SDS011;20413;50.782;7.152;2022-12-24T07:43:56;17.00;;;2.17;;
27408;SDS011;20413;50.782;7.152;2022-12-24T07:46:22;18.27;;;2.78;;
27408;SDS011;20413;50.782;7.152;2022-12-24T07:48:48;16.42;;;2.85;;
27408;SDS011;20413;50.782;7.152;2022-12-24T07:51:14;16.98;;;2.50;;
27408;SDS011;20413;50.782;7.152;2022-12-24T07:53:40;17.38;;;2.65;;
27408;SDS011;20413;50.782;7.152;2022-12-24T07:56:11;24.85;;;3.30;;
27408;SDS011;20413;50.782;7.152;2022-12-24T07:58:37;18.08;;;2.30;;
27408;SDS011;20413;50.782;7.152;2022-12-24T08:01:03;22.73;;;2.75;;
27408;SDS011;20413;50.782;7.152;2022-12-24T08:03:30;11.55;;;2.50;;
27408;SDS011;20413;50.782;7.152;2022-12-24T08:05:56;15.57;;;2.67;;
27408;SDS011;20413;50.782;7.152;2022-12-24T08:08:22;14.85;;;2.40;;
27408;SDS011;20413;50.782;7.152;2022-12-24T08:10:49;20.02;;;3.00;;
27408;SDS011;20413;50.782;7.152;2022-12-24T08:13:15;18.50;;;3.33;;
27408;SDS011;20413;50.782;7.152;2022-12-24T08:15:41;16.00;;;3.22;;
27408;SDS011;20413;50.782;7.152;2022-12-24T08:18:08;18.92;;;3.40;;
27408;SDS011;20413;50.782;7.152;2022-12-24T08:20:36;20.00;;;3.25;;
27408;SDS011;20413;50.782;7.152;2022-12-24T08:23:02;15.63;;;2.80;;
27408;SDS011;20413;50.782;7.152;2022-12-24T08:25:28;16.05;;;2.53;;
27408;SDS011;20413;50.782;7.152;2022-12-24T08:27:54;22.75;;;3.15;;
27408;SDS011;20413;50.782;7.152;2022-12-24T08:30:20;23.70;;;3.17;;
27408;SDS011;20413;50.782;7.152;2022-12-24T08:32:46;18.52;;;3.50;;
27408;SDS011;20413;50.782;7.152;2022-12-24T08:35:12;15.75;;;2.20;;
27408;SDS011;20413;50.782;7.152;2022-12-24T08:37:50;17.63;;;3.30;;
27408;SDS011;20413;50.782;7.152;2022-12-24T08:40:16;24.33;;;3.83;;
27408;SDS011;20413;50.782;7.152;2022-12-24T08:42:42;15.77;;;2.65;;
27408;SDS011;20413;50.782;7.152;2022-12-24T08:45:08;13.32;;;2.63;;
27408;SDS011;20413;50.782;7.152;2022-12-24T08:47:35;22.33;;;3.20;;
27408;SDS011;20413;50.782;7.152;2022-12-24T08:50:01;14.15;;;2.55;;
27408;SDS011;20413;50.782;7.152;2022-12-24T08:52:27;17.52;;;3.25;;
27408;SDS011;20413;50.782;7.152;2022-12-24T08:54:53;11.35;;;2.83;;
27408;SDS011;20413;50.782;7.152;2022-12-24T08:57:19;16.98;;;3.70;;
27408;SDS011;20413;50.782;7.152;2022-12-24T08:59:45;21.92;;;3.67;;
27408;SDS011;20413;50.782;7.152;2022-12-24T09:02:11;16.52;;;3.30;;
27408;SDS011;20413;50.782;7.152;2022-12-24T09:04:37;18.17;;;3.30;;
27408;SDS011;20413;50.782;7.152;2022-12-24T09:07:07;20.55;;;3.53;;
27408;SDS011;20413;50.782;7.152;2022-12-24T09:09:33;17.60;;;3.83;;
27408;SDS011;20413;50.782;7.152;2022-12-24T09:11:59;13.93;;;3.63;;
27408;SDS011;20413;50.782;7.152;2022-12-24T09:14:25;22.63;;;3.70;;
27408;SDS011;20413;50.782;7.152;2022-12-24T09:16:51;17.48;;;3.15;;
27408;SDS011;20413;50.782;7.152;2022-12-24T09:19:17;18.88;;;2.80;;
27408;SDS011;20413;50.782;7.152;2022-12-24T09:21:43;14.82;;;3.00;;
27408;SDS011;20413;50.782;7.152;2022-12-24T09:24:09;14.93;;;2.88;;
27408;SDS011;20413;50.782;7.152;2022-12-24T09:26:35;16.83;;;3.38;;
27408;SDS011;20413;50.782;7.152;2022-12-24T09:29:01;16.05;;;3.08;;
27408;SDS011;20413;50.782;7.152;2022-12-24T09:31:27;14.80;;;2.45;;
27408;SDS011;20413;50.782;7.152;2022-12-24T09:33:54;16.42;;;3.33;;
27408;SDS011;20413;50.782;7.152;2022-12-24T09:36:20;17.27;;;2.70;;
27408;SDS011;20413;50.782;7.152;2022-12-24T09:38:46;16.70;;;2.90;;
27408;SDS011;20413;50.782;7.152;2022-12-24T09:43:48;14.77;;;2.53;;
27408;SDS011;20413;50.782;7.152;2022-12-24T09:46:23;17.98;;;2.92;;
27408;SDS011;20413;50.782;7.152;2022-12-24T09:48:52;14.80;;;3.20;;
27408;SDS011;20413;50.782;7.152;2022-12-24T09:51:31;17.05;;;3.33;;
27408;SDS011;20413;50.782;7.152;2022-12-24T09:56:25;18.95;;;3.25;;
27408;SDS011;20413;50.782;7.152;2022-12-24T09:58:53;19.40;;;3.10;;
27408;SDS011;20413;50.782;7.152;2022-12-24T10:01:21;19.42;;;3.13;;
27408;SDS011;20413;50.782;7.152;2022-12-24T10:03:47;20.88;;;3.03;;
27408;SDS011;20413;50.782;7.152;2022-12-24T10:06:14;12.77;;;2.83;;
27408;SDS011;20413;50.782;7.152;2022-12-24T10:11:28;23.35;;;3.28;;
27408;SDS011;20413;50.782;7.152;2022-12-24T10:14:02;14.52;;;2.20;;
27408;SDS011;20413;50.782;7.152;2022-12-24T10:16:39;18.75;;;3.00;;
27408;SDS011;20413;50.782;7.152;2022-12-24T10:19:23;24.45;;;3.67;;
27408;SDS011;20413;50.782;7.152;2022-12-24T10:21:57;16.50;;;3.28;;
27408;SDS011;20413;50.782;7.152;2022-12-24T10:24:30;17.23;;;3.20;;
27408;SDS011;20413;50.782;7.152;2022-12-24T10:27:02;21.75;;;2.95;;
27408;SDS011;20413;50.782;7.152;2022-12-24T10:29:33;18.95;;;2.88;;
27408;SDS011;20413;50.782;7.152;2022-12-24T10:34:35;21.30;;;3.28;;
27408;SDS011;20413;50.782;7.152;2022-12-24T10:37:03;23.98;;;3.38;;
27408;SDS011;20413;50.782;7.152;2022-12-24T10:39:29;19.02;;;2.85;;
27408;SDS011;20413;50.782;7.152;2022-12-24T10:41:56;15.05;;;3.00;;
27408;SDS011;20413;50.782;7.152;2022-12-24T10:46:49;21.58;;;3.00;;
27408;SDS011;20413;50.782;7.152;2022-12-24T10:49:17;18.25;;;2.50;;
27408;SDS011;20413;50.782;7.152;2022-12-24T10:54:13;16.60;;;3.08;;
27408;SDS011;20413;50.782;7.152;2022-12-24T10:56:48;17.05;;;2.60;;
27408;SDS011;20413;50.782;7.152;2022-12-24T11:01:49;19.50;;;3.33;;
27408;SDS011;20413;50.782;7.152;2022-12-24T11:04:17;15.23;;;3.15;;
27408;SDS011;20413;50.782;7.152;2022-12-24T11:06:53;21.40;;;3.53;;
27408;SDS011;20413;50.782;7.152;2022-12-24T11:09:21;24.77;;;2.85;;
27408;SDS011;20413;50.782;7.152;2022-12-24T11:11:47;22.25;;;3.20;;
27408;SDS011;20413;50.782;7.152;2022-12-24T11:14:14;18.65;;;2.70;;
27408;SDS011;20413;50.782;7.152;2022-12-24T11:16:46;25.53;;;2.97;;
27408;SDS011;20413;50.782;7.152;2022-12-24T11:19:17;16.67;;;2.78;;
27408;SDS011;20413;50.782;7.152;2022-12-24T11:21:43;24.55;;;3.63;;
27408;SDS011;20413;50.782;7.152;2022-12-24T11:26:42;17.67;;;3.00;;
27408;SDS011;20413;50.782;7.152;2022-12-24T11:29:13;24.20;;;4.03;;
27408;SDS011;20413;50.782;7.152;2022-12-24T11:31:39;23.52;;;3.10;;
27408;SDS011;20413;50.782;7.152;2022-12-24T11:34:23;16.85;;;3.10;;
27408;SDS011;20413;50.782;7.152;2022-12-24T11:36:50;14.75;;;3.03;;
27408;SDS011;20413;50.782;7.152;2022-12-24T11:39:19;24.08;;;4.10;;
27408;SDS011;20413;50.782;7.152;2022-12-24T11:41:46;15.57;;;3.13;;
27408;SDS011;20413;50.782;7.152;2022-12-24T11:44:12;14.35;;;2.70;;
27408;SDS011;20413;50.782;7.152;2022-12-24T11:46:40;19.38;;;3.60;;
27408;SDS011;20413;50.782;7.152;2022-12-24T11:51:33;18.40;;;2.95;;
27408;SDS011;20413;50.782;7.152;2022-12-24T11:54:07;20.38;;;3.42;;
27408;SDS011;20413;50.782;7.152;2022-12-24T11:56:43;12.43;;;3.13;;
27408;SDS011;20413;50.782;7.152;2022-12-24T11:59:25;18.17;;;3.15;;
27408;SDS011;20413;50.782;7.152;2022-12-24T12:01:55;25.08;;;3.97;;
27408;SDS011;20413;50.782;7.152;2022-12-24T12:04:26;18.80;;;3.45;;
27408;SDS011;20413;50.782;7.152;2022-12-24T12:06:57;19.35;;;2.85;;
27408;SDS011;20413;50.782;7.152;2022-12-24T12:09:27;16.05;;;2.80;;
27408;SDS011;20413;50.782;7.152;2022-12-24T12:14:42;18.20;;;3.22;;
27408;SDS011;20413;50.782;7.152;2022-12-24T12:19:42;16.92;;;3.05;;
27408;SDS011;20413;50.782;7.152;2022-12-24T12:22:15;23.60;;;3.08;;
27408;SDS011;20413;50.782;7.152;2022-12-24T12:24:45;18.55;;;3.58;;
27408;SDS011;20413;50.782;7.152;2022-12-24T12:27:16;21.30;;;3.13;;
27408;SDS011;20413;50.782;7.152;2022-12-24T12:29:49;16.52;;;3.55;;
27408;SDS011;20413;50.782;7.152;2022-12-24T12:33:02;21.42;;;3.65;;
27408;SDS011;20413;50.782;7.152;2022-12-24T12:37:47;16.30;;;2.90;;
27408;SDS011;20413;50.782;7.152;2022-12-24T12:40:16;19.13;;;3.40;;
27408;SDS011;20413;50.782;7.152;2022-12-24T12:42:55;19.67;;;3.28;;
27408;SDS011;20413;50.782;7.152;2022-12-24T12:47:56;16.50;;;2.95;;
27408;SDS011;20413;50.782;7.152;2022-12-24T12:51:27;20.70;;;2.90;;
27408;SDS011;20413;50.782;7.152;2022-12-24T12:56:04;25.73;;;2.97;;
27408;SDS011;20413;50.782;7.152;2022-12-24T12:58:38;19.70;;;3.03;;
27408;SDS011;20413;50.782;7.152;2022-12-24T13:01:14;22.67;;;3.05;;
27408;SDS011;20413;50.782;7.152;2022-12-24T13:03:49;15.02;;;3.17;;
27408;SDS011;20413;50.782;7.152;2022-12-24T13:21:56;15.52;;;2.92;;
27408;SDS011;20413;50.782;7.152;2022-12-24T13:24:23;12.25;;;2.45;;
27408;SDS011;20413;50.782;7.152;2022-12-24T13:32:35;11.52;;;2.45;;
27408;SDS011;20413;50.782;7.152;2022-12-24T13:34:42;14.23;;;2.25;;
27408;SDS011;20413;50.782;7.152;2022-12-24T13:37:21;14.05;;;2.78;;
27408;SDS011;20413;50.782;7.152;2022-12-24T13:47:58;16.98;;;2.80;;
27408;SDS011;20413;50.782;7.152;2022-12-24T13:53:33;15.15;;;3.08;;
27408;SDS011;20413;50.782;7.152;2022-12-24T13:58:32;12.65;;;2.60;;
27408;SDS011;20413;50.782;7.152;2022-12-24T14:03:34;14.70;;;3.60;;
27408;SDS011;20413;50.782;7.152;2022-12-24T14:06:12;18.88;;;3.25;;
27408;SDS011;20413;50.782;7.152;2022-12-24T14:08:45;13.57;;;2.75;;
27408;SDS011;20413;50.782;7.152;2022-12-24T14:11:15;13.15;;;2.92;;
27408;SDS011;20413;50.782;7.152;2022-12-24T14:18:41;18.63;;;3.63;;
27408;SDS011;20413;50.782;7.152;2022-12-24T14:21:32;20.30;;;3.60;;
27408;SDS011;20413;50.782;7.152;2022-12-24T14:24:01;20.40;;;3.83;;
27408;SDS011;20413;50.782;7.152;2022-12-24T14:26:35;18.00;;;2.83;;
27408;SDS011;20413;50.782;7.152;2022-12-24T14:31:51;16.40;;;2.78;;
27408;SDS011;20413;50.782;7.152;2022-12-24T14:34:17;17.83;;;3.03;;
27408;SDS011;20413;50.782;7.152;2022-12-24T14:36:43;18.10;;;3.30;;
27408;SDS011;20413;50.782;7.152;2022-12-24T14:39:19;11.32;;;2.78;;
27408;SDS011;20413;50.782;7.152;2022-12-24T14:41:51;20.13;;;3.63;;
27408;SDS011;20413;50.782;7.152;2022-12-24T14:44:52;15.50;;;3.30;;
27408;SDS011;20413;50.782;7.152;2022-12-24T14:47:21;21.05;;;3.05;;
27408;SDS011;20413;50.782;7.152;2022-12-24T14:50:10;11.10;;;2.55;;
27408;SDS011;20413;50.782;7.152;2022-12-24T14:58:30;17.48;;;3.53;;
27408;SDS011;20413;50.782;7.152;2022-12-24T15:00:57;16.13;;;3.13;;
27408;SDS011;20413;50.782;7.152;2022-12-24T15:03:31;17.45;;;3.28;;
27408;SDS011;20413;50.782;7.152;2022-12-24T15:06:04;17.02;;;3.13;;
27408;SDS011;20413;50.782;7.152;2022-12-24T15:08:44;15.88;;;3.42;;
27408;SDS011;20413;50.782;7.152;2022-12-24T15:11:16;15.90;;;3.13;;
27408;SDS011;20413;50.782;7.152;2022-12-24T15:13:46;17.33;;;3.70;;
27408;SDS011;20413;50.782;7.152;2022-12-24T15:16:19;23.02;;;4.03;;
27408;SDS011;20413;50.782;7.152;2022-12-24T15:18:48;15.70;;;3.33;;
27408;SDS011;20413;50.782;7.152;2022-12-24T15:21:26;18.52;;;3.72;;
27408;SDS011;20413;50.782;7.152;2022-12-24T15:23:55;13.20;;;3.13;;
27408;SDS011;20413;50.782;7.152;2022-12-24T15:26:23;10.68;;;3.33;;
27408;SDS011;20413;50.782;7.152;2022-12-24T15:28:55;18.25;;;4.18;;
27408;SDS011;20413;50.782;7.152;2022-12-24T15:31:23;16.38;;;3.47;;
27408;SDS011;20413;50.782;7.152;2022-12-24T15:33:51;18.70;;;4.05;;
27408;SDS011;20413;50.782;7.152;2022-12-24T15:36:24;22.33;;;4.43;;
27408;SDS011;20413;50.782;7.152;2022-12-24T15:38:55;14.93;;;3.90;;
27408;SDS011;20413;50.782;7.152;2022-12-24T15:41:23;15.97;;;3.80;;
27408;SDS011;20413;50.782;7.152;2022-12-24T15:43:52;14.98;;;4.43;;
27408;SDS011;20413;50.782;7.152;2022-12-24T15:46:24;22.35;;;5.32;;
27408;SDS011;20413;50.782;7.152;2022-12-24T15:48:51;22.65;;;5.85;;
27408;SDS011;20413;50.782;7.152;2022-12-24T15:51:29;19.52;;;4.40;;
27408;SDS011;20413;50.782;7.152;2022-12-24T15:54:01;21.98;;;5.00;;
27408;SDS011;20413;50.782;7.152;2022-12-24T15:56:43;21.20;;;4.85;;
27408;SDS011;20413;50.782;7.152;2022-12-24T16:02:17;21.35;;;4.78;;
27408;SDS011;20413;50.782;7.152;2022-12-24T16:10:46;26.90;;;5.93;;
27408;SDS011;20413;50.782;7.152;2022-12-24T16:13:18;27.75;;;4.70;;
27408;SDS011;20413;50.782;7.152;2022-12-24T16:15:51;25.42;;;4.28;;
27408;SDS011;20413;50.782;7.152;2022-12-24T16:18:23;38.55;;;5.28;;
27408;SDS011;20413;50.782;7.152;2022-12-24T16:21:02;33.35;;;5.32;;
27408;SDS011;20413;50.782;7.152;2022-12-24T16:23:36;31.30;;;5.63;;
27408;SDS011;20413;50.782;7.152;2022-12-24T16:26:03;23.80;;;5.40;;
27408;SDS011;20413;50.782;7.152;2022-12-24T16:28:29;19.23;;;4.15;;
27408;SDS011;20413;50.782;7.152;2022-12-24T16:30:55;24.77;;;5.22;;
27408;SDS011;20413;50.782;7.152;2022-12-24T16:33:21;23.50;;;3.72;;